createdAt,value
2022-10-31T00:00:28.465Z,0.00
2022-10-31T00:01:28.417Z,0.00
2022-10-31T00:02:28.466Z,0.00
2022-10-31T00:03:28.391Z,0.00
2022-10-31T00:04:28.386Z,0.00
2022-10-31T00:05:28.386Z,0.00
2022-10-31T00:06:28.343Z,0.00
2022-10-31T00:07:28.330Z,0.00
2022-10-31T00:08:28.348Z,0.00
2022-10-31T00:09:29.254Z,0.00
2022-10-31T00:10:28.304Z,0.00
2022-10-31T00:11:28.284Z,0.00
2022-10-31T00:12:28.351Z,0.00
2022-10-31T00:13:28.258Z,0.00
2022-10-31T00:14:28.265Z,0.00
2022-10-31T00:15:28.240Z,0.00
2022-10-31T00:16:28.228Z,0.00
2022-10-31T00:17:28.215Z,0.00
2022-10-31T00:18:28.241Z,0.00
2022-10-31T00:19:28.200Z,0.00
2022-10-31T00:20:28.187Z,0.00
2022-10-31T00:21:28.283Z,0.00
2022-10-31T00:22:28.182Z,0.00
2022-10-31T00:23:28.182Z,0.00
2022-10-31T00:24:28.137Z,0.00
2022-10-31T00:25:28.136Z,0.00
2022-10-31T00:26:28.138Z,0.00
2022-10-31T00:27:28.137Z,0.00
2022-10-31T00:28:28.091Z,0.00
2022-10-31T00:29:28.104Z,0.00
2022-10-31T00:30:28.080Z,0.00
2022-10-31T00:31:28.091Z,0.00
2022-10-31T00:32:28.048Z,0.00
2022-10-31T00:33:28.040Z,0.00
2022-10-31T00:34:28.022Z,0.00
2022-10-31T00:35:28.021Z,0.00
2022-10-31T00:36:28.031Z,0.00
2022-10-31T00:37:28.011Z,0.00
2022-10-31T00:38:27.985Z,0.00
2022-10-31T00:39:27.972Z,0.00
2022-10-31T00:40:27.952Z,0.00
2022-10-31T00:41:27.962Z,0.00
2022-10-31T00:42:27.953Z,0.00
2022-10-31T00:43:27.940Z,0.00
2022-10-31T00:44:27.913Z,0.00
2022-10-31T00:45:27.911Z,0.00
2022-10-31T00:46:27.912Z,0.00
2022-10-31T00:47:27.875Z,0.00
2022-10-31T00:48:27.899Z,0.00
2022-10-31T00:49:28.831Z,0.00
2022-10-31T00:50:27.842Z,0.00
2022-10-31T00:51:27.842Z,0.00
2022-10-31T00:52:27.815Z,0.00
2022-10-31T00:53:27.809Z,0.00
2022-10-31T00:54:27.824Z,0.00
2022-10-31T00:55:27.825Z,0.00
2022-10-31T00:56:27.777Z,0.00
2022-10-31T00:57:27.787Z,0.00
2022-10-31T00:58:27.746Z,0.00
2022-10-31T00:59:27.752Z,0.00
2022-10-31T01:00:27.728Z,0.00
2022-10-31T01:01:27.896Z,0.00
2022-10-31T01:02:27.849Z,0.00
2022-10-31T01:03:27.698Z,0.00
2022-10-31T01:04:27.707Z,0.00
2022-10-31T01:05:27.679Z,0.00
2022-10-31T01:06:27.700Z,0.00
2022-10-31T01:07:27.673Z,0.00
2022-10-31T01:08:28.597Z,0.00
2022-10-31T01:09:27.640Z,0.00
2022-10-31T01:10:27.617Z,0.00
2022-10-31T01:11:27.641Z,0.00
2022-10-31T01:12:27.611Z,0.00
2022-10-31T01:13:27.594Z,0.00
2022-10-31T01:14:27.584Z,0.00
2022-10-31T01:15:27.580Z,0.00
2022-10-31T01:16:27.591Z,0.00
2022-10-31T01:17:27.551Z,0.00
2022-10-31T01:18:27.531Z,0.00
2022-10-31T01:19:27.561Z,0.00
2022-10-31T01:20:27.512Z,0.00
2022-10-31T01:21:27.506Z,0.00
2022-10-31T01:22:27.506Z,0.00
2022-10-31T01:23:28.435Z,0.00
2022-10-31T01:24:27.468Z,0.00
2022-10-31T01:25:27.466Z,0.00
2022-10-31T01:26:27.448Z,0.00
2022-10-31T01:27:27.454Z,0.00
2022-10-31T01:28:27.436Z,0.00
2022-10-31T01:29:27.467Z,0.00
2022-10-31T01:30:27.396Z,0.00
2022-10-31T01:31:27.390Z,0.00
2022-10-31T01:32:27.383Z,0.00
2022-10-31T01:33:27.359Z,0.00
2022-10-31T01:34:27.381Z,0.00
2022-10-31T01:35:27.339Z,0.00
2022-10-31T01:36:27.331Z,0.00
2022-10-31T01:37:27.334Z,0.00
2022-10-31T01:38:27.307Z,0.00
2022-10-31T01:39:27.303Z,0.00
2022-10-31T01:40:27.328Z,0.00
2022-10-31T01:41:27.277Z,0.00
2022-10-31T01:42:27.258Z,0.00
2022-10-31T01:43:27.262Z,0.00
2022-10-31T01:44:27.232Z,0.00
2022-10-31T01:45:27.220Z,0.00
2022-10-31T01:46:27.253Z,0.00
2022-10-31T01:47:27.206Z,0.00
2022-10-31T01:48:27.190Z,0.00
2022-10-31T01:49:27.196Z,0.00
2022-10-31T01:50:27.161Z,0.00
2022-10-31T01:51:27.156Z,0.00
2022-10-31T01:52:27.161Z,0.00
2022-10-31T01:53:27.230Z,0.00
2022-10-31T01:54:27.134Z,0.00
2022-10-31T01:55:30.036Z,0.00
2022-10-31T01:56:27.097Z,0.00
2022-10-31T01:57:27.096Z,0.00
2022-10-31T01:58:27.088Z,0.00
2022-10-31T01:59:27.066Z,0.00
2022-10-31T02:00:27.071Z,0.00
2022-10-31T02:01:27.131Z,0.00
2022-10-31T02:02:27.085Z,0.00
2022-10-31T02:03:27.015Z,0.00
2022-10-31T02:04:27.019Z,0.00
2022-10-31T02:05:27.015Z,0.00
2022-10-31T02:06:27.938Z,0.00
2022-10-31T02:07:26.970Z,0.00
2022-10-31T02:08:26.967Z,0.00
2022-10-31T02:09:26.981Z,0.00
2022-10-31T02:10:26.968Z,0.00
2022-10-31T02:11:26.937Z,0.00
2022-10-31T02:12:26.915Z,0.00
2022-10-31T02:13:26.944Z,0.00
2022-10-31T02:14:26.889Z,0.00
2022-10-31T02:15:26.890Z,0.00
2022-10-31T02:16:26.879Z,0.00
2022-10-31T02:17:26.873Z,0.00
2022-10-31T02:18:26.849Z,0.00
2022-10-31T02:19:26.851Z,0.00
2022-10-31T02:20:26.817Z,0.00
2022-10-31T02:21:28.299Z,0.00
2022-10-31T02:22:26.794Z,0.00
2022-10-31T02:23:26.805Z,0.00
2022-10-31T02:24:26.776Z,0.00
2022-10-31T02:25:26.796Z,0.00
2022-10-31T02:26:26.742Z,0.00
2022-10-31T02:27:27.054Z,0.00
2022-10-31T02:28:26.731Z,0.00
2022-10-31T02:29:26.734Z,0.00
2022-10-31T02:30:26.705Z,0.00
2022-10-31T02:31:26.693Z,0.00
2022-10-31T02:32:26.693Z,0.00
2022-10-31T02:33:26.705Z,0.00
2022-10-31T02:34:26.655Z,0.00
2022-10-31T02:35:26.676Z,0.00
2022-10-31T02:36:26.645Z,0.00
2022-10-31T02:37:26.668Z,0.00
2022-10-31T02:38:26.635Z,0.00
2022-10-31T02:39:26.624Z,0.00
2022-10-31T02:40:26.589Z,0.00
2022-10-31T02:41:26.578Z,0.00
2022-10-31T02:42:26.627Z,0.00
2022-10-31T02:43:26.595Z,0.00
2022-10-31T02:44:26.537Z,0.00
2022-10-31T02:45:26.541Z,0.00
2022-10-31T02:46:26.546Z,0.00
2022-10-31T02:47:26.550Z,0.00
2022-10-31T02:48:26.541Z,0.00
2022-10-31T02:49:26.494Z,0.00
2022-10-31T02:50:26.482Z,0.00
2022-10-31T02:51:26.480Z,0.00
2022-10-31T02:52:26.476Z,0.00
2022-10-31T02:53:26.448Z,0.00
2022-10-31T02:54:26.468Z,0.00
2022-10-31T02:55:26.438Z,0.00
2022-10-31T02:56:26.430Z,0.00
2022-10-31T02:57:26.409Z,0.00
2022-10-31T02:58:26.400Z,0.00
2022-10-31T02:59:26.375Z,0.00
2022-10-31T03:00:26.389Z,0.00
2022-10-31T03:01:26.452Z,0.00
2022-10-31T03:02:26.536Z,0.00
2022-10-31T03:03:26.353Z,0.00
2022-10-31T03:04:26.325Z,0.00
2022-10-31T03:05:26.314Z,0.00
2022-10-31T03:06:26.300Z,0.00
2022-10-31T03:07:26.325Z,0.00
2022-10-31T03:08:26.293Z,0.00
2022-10-31T03:09:26.277Z,0.00
2022-10-31T03:10:26.253Z,0.00
2022-10-31T03:11:26.248Z,0.00
2022-10-31T03:12:26.237Z,0.00
2022-10-31T03:13:26.239Z,0.00
2022-10-31T03:14:26.218Z,0.00
2022-10-31T03:15:26.206Z,0.00
2022-10-31T03:16:26.192Z,0.00
2022-10-31T03:17:26.210Z,0.00
2022-10-31T03:18:26.173Z,0.00
2022-10-31T03:19:26.169Z,0.00
2022-10-31T03:20:26.148Z,0.00
2022-10-31T03:21:26.143Z,0.00
2022-10-31T03:22:26.141Z,0.00
2022-10-31T03:23:26.128Z,0.00
2022-10-31T03:24:26.100Z,0.00
2022-10-31T03:25:26.099Z,0.00
2022-10-31T03:26:26.081Z,0.00
2022-10-31T03:27:26.106Z,0.00
2022-10-31T03:28:26.051Z,0.00
2022-10-31T03:29:26.049Z,0.00
2022-10-31T03:30:26.036Z,0.00
2022-10-31T03:31:26.020Z,0.00
2022-10-31T03:32:26.019Z,0.00
2022-10-31T03:33:26.041Z,0.00
2022-10-31T03:34:26.941Z,0.00
2022-10-31T03:35:25.981Z,0.00
2022-10-31T03:36:25.984Z,0.00
2022-10-31T03:37:25.971Z,0.00
2022-10-31T03:38:25.941Z,0.00
2022-10-31T03:39:25.957Z,0.00
2022-10-31T03:40:25.908Z,0.00
2022-10-31T03:41:26.877Z,0.00
2022-10-31T03:42:25.902Z,0.00
2022-10-31T03:43:25.918Z,0.00
2022-10-31T03:44:25.888Z,0.00
2022-10-31T03:45:25.853Z,0.00
2022-10-31T03:46:25.866Z,0.00
2022-10-31T03:47:25.844Z,0.00
2022-10-31T03:48:25.858Z,0.00
2022-10-31T03:49:25.824Z,0.00
2022-10-31T03:50:25.825Z,0.00
2022-10-31T03:51:25.814Z,0.00
2022-10-31T03:52:25.781Z,0.00
2022-10-31T03:53:25.777Z,0.00
2022-10-31T03:54:25.756Z,0.00
2022-10-31T03:55:25.784Z,0.00
2022-10-31T03:56:25.727Z,0.00
2022-10-31T03:57:25.731Z,0.00
2022-10-31T03:58:25.739Z,0.00
2022-10-31T03:59:25.703Z,0.00
2022-10-31T04:00:25.719Z,0.00
2022-10-31T04:01:25.862Z,0.00
2022-10-31T04:02:25.822Z,0.00
2022-10-31T04:03:25.667Z,0.00
2022-10-31T04:04:25.646Z,0.00
2022-10-31T04:05:25.639Z,0.00
2022-10-31T04:06:25.641Z,0.00
2022-10-31T04:07:25.644Z,0.00
2022-10-31T04:08:25.618Z,0.00
2022-10-31T04:09:25.593Z,0.00
2022-10-31T04:10:31.862Z,0.00
2022-10-31T04:11:26.570Z,0.00
2022-10-31T04:12:25.562Z,0.00
2022-10-31T04:13:25.560Z,0.00
2022-10-31T04:14:25.544Z,0.00
2022-10-31T04:15:25.558Z,0.00
2022-10-31T04:16:25.511Z,0.00
2022-10-31T04:17:25.531Z,0.00
2022-10-31T04:18:25.513Z,0.00
2022-10-31T04:19:25.501Z,0.00
2022-10-31T04:20:25.493Z,0.00
2022-10-31T04:21:25.512Z,0.00
2022-10-31T04:22:25.444Z,0.00
2022-10-31T04:23:25.454Z,0.00
2022-10-31T04:24:25.461Z,0.00
2022-10-31T04:25:25.456Z,0.00
2022-10-31T04:26:25.404Z,0.00
2022-10-31T04:27:25.459Z,0.00
2022-10-31T04:28:25.401Z,0.00
2022-10-31T04:29:25.386Z,0.00
2022-10-31T04:30:25.374Z,0.00
2022-10-31T04:31:25.366Z,0.00
2022-10-31T04:32:25.348Z,0.00
2022-10-31T04:33:25.365Z,0.00
2022-10-31T04:34:26.278Z,0.00
2022-10-31T04:35:25.310Z,0.00
2022-10-31T04:36:25.329Z,0.00
2022-10-31T04:37:25.298Z,0.00
2022-10-31T04:38:25.277Z,0.00
2022-10-31T04:39:26.772Z,0.00
2022-10-31T04:40:25.266Z,0.00
2022-10-31T04:41:25.247Z,0.00
2022-10-31T04:42:25.241Z,0.00
2022-10-31T04:43:25.224Z,0.00
2022-10-31T04:44:25.213Z,0.00
2022-10-31T04:45:25.240Z,0.00
2022-10-31T04:46:25.190Z,0.00
2022-10-31T04:47:25.190Z,0.00
2022-10-31T04:48:25.192Z,0.00
2022-10-31T04:49:25.170Z,0.00
2022-10-31T04:50:25.151Z,0.00
2022-10-31T04:51:25.161Z,0.00
2022-10-31T04:52:25.141Z,0.00
2022-10-31T04:53:25.119Z,0.00
2022-10-31T04:54:25.111Z,0.00
2022-10-31T04:55:25.086Z,0.00
2022-10-31T04:56:25.100Z,0.00
2022-10-31T04:57:25.092Z,0.00
2022-10-31T04:58:25.085Z,0.00
2022-10-31T04:59:25.052Z,0.00
2022-10-31T05:00:25.046Z,0.00
2022-10-31T05:01:25.107Z,0.00
2022-10-31T05:02:25.112Z,0.00
2022-10-31T05:03:25.035Z,0.00
2022-10-31T05:04:25.383Z,0.00
2022-10-31T05:05:25.143Z,0.00
2022-10-31T05:06:24.974Z,0.00
2022-10-31T05:07:24.968Z,0.00
2022-10-31T05:08:24.990Z,0.00
2022-10-31T05:09:24.965Z,0.00
2022-10-31T05:10:24.978Z,0.00
2022-10-31T05:11:24.918Z,0.00
2022-10-31T05:12:24.914Z,0.00
2022-10-31T05:13:24.898Z,0.00
2022-10-31T05:14:24.957Z,0.00
2022-10-31T05:15:24.878Z,0.00
2022-10-31T05:16:25.827Z,0.00
2022-10-31T05:17:24.851Z,0.00
2022-10-31T05:18:24.837Z,0.00
2022-10-31T05:19:24.827Z,0.00
2022-10-31T05:20:24.819Z,0.00
2022-10-31T05:21:24.821Z,0.00
2022-10-31T05:22:24.802Z,0.00
2022-10-31T05:23:24.870Z,0.00
2022-10-31T05:24:24.775Z,0.00
2022-10-31T05:25:24.761Z,0.00
2022-10-31T05:26:24.770Z,0.00
2022-10-31T05:27:24.739Z,0.00
2022-10-31T05:28:24.761Z,0.00
2022-10-31T05:29:24.711Z,0.00
2022-10-31T05:30:24.711Z,0.00
2022-10-31T05:31:24.701Z,0.00
2022-10-31T05:32:24.701Z,0.00
2022-10-31T05:33:24.664Z,0.00
2022-10-31T05:34:24.676Z,0.00
2022-10-31T05:35:24.647Z,0.00
2022-10-31T05:36:24.644Z,0.00
2022-10-31T05:37:24.625Z,0.00
2022-10-31T05:38:24.744Z,0.00
2022-10-31T05:39:25.582Z,0.00
2022-10-31T05:40:24.624Z,0.00
2022-10-31T05:41:24.596Z,0.00
2022-10-31T05:42:24.659Z,0.00
2022-10-31T05:43:24.554Z,0.00
2022-10-31T05:44:24.567Z,0.00
2022-10-31T05:45:24.607Z,0.00
2022-10-31T05:46:24.637Z,0.00
2022-10-31T05:47:24.595Z,0.00
2022-10-31T05:48:24.504Z,0.00
2022-10-31T05:49:24.514Z,0.00
2022-10-31T05:50:24.509Z,0.00
2022-10-31T05:51:24.463Z,0.00
2022-10-31T05:52:24.466Z,0.00
2022-10-31T05:53:24.436Z,0.00
2022-10-31T05:54:24.479Z,0.00
2022-10-31T05:55:24.438Z,0.00
2022-10-31T05:56:24.444Z,0.00
2022-10-31T05:57:24.395Z,0.00
2022-10-31T05:58:24.377Z,0.00
2022-10-31T05:59:24.380Z,0.00
2022-10-31T06:00:24.383Z,4.00
2022-10-31T06:01:24.426Z,4.00
2022-10-31T06:02:24.384Z,0.00
2022-10-31T06:03:24.319Z,4.00
2022-10-31T06:04:24.400Z,4.00
2022-10-31T06:05:24.304Z,4.00
2022-10-31T06:06:24.296Z,4.00
2022-10-31T06:07:24.290Z,8.00
2022-10-31T06:08:24.326Z,4.00
2022-10-31T06:09:24.294Z,8.00
2022-10-31T06:10:24.252Z,8.00
2022-10-31T06:11:24.253Z,8.00
2022-10-31T06:12:24.238Z,12.00
2022-10-31T06:13:24.235Z,12.00
2022-10-31T06:14:24.211Z,16.00
2022-10-31T06:15:24.909Z,16.00
2022-10-31T06:16:24.213Z,20.00
2022-10-31T06:17:24.172Z,20.00
2022-10-31T06:18:24.202Z,28.00
2022-10-31T06:19:24.175Z,28.00
2022-10-31T06:20:24.137Z,36.00
2022-10-31T06:21:24.125Z,36.00
2022-10-31T06:22:24.114Z,40.00
2022-10-31T06:23:24.124Z,40.00
2022-10-31T06:24:24.132Z,44.00
2022-10-31T06:25:24.081Z,48.00
2022-10-31T06:26:24.076Z,48.00
2022-10-31T06:27:24.056Z,60.00
2022-10-31T06:28:24.057Z,64.00
2022-10-31T06:29:24.259Z,68.00
2022-10-31T06:30:24.226Z,80.00
2022-10-31T06:31:24.016Z,88.00
2022-10-31T06:32:24.051Z,92.00
2022-10-31T06:33:24.240Z,100.00
2022-10-31T06:34:23.999Z,108.00
2022-10-31T06:35:24.003Z,112.00
2022-10-31T06:36:24.023Z,120.00
2022-10-31T06:37:23.959Z,128.00
2022-10-31T06:38:23.928Z,136.00
2022-10-31T06:39:23.934Z,144.00
2022-10-31T06:40:23.939Z,152.00
2022-10-31T06:41:23.927Z,156.00
2022-10-31T06:42:23.909Z,164.00
2022-10-31T06:43:23.913Z,172.00
2022-10-31T06:44:23.878Z,180.00
2022-10-31T06:45:23.851Z,184.00
2022-10-31T06:46:25.331Z,192.00
2022-10-31T06:47:23.879Z,196.00
2022-10-31T06:48:24.184Z,200.00
2022-10-31T06:49:23.811Z,204.00
2022-10-31T06:50:23.832Z,208.00
2022-10-31T06:51:24.052Z,212.00
2022-10-31T06:52:23.814Z,216.00
2022-10-31T06:53:23.792Z,216.00
2022-10-31T06:54:23.759Z,216.00
2022-10-31T06:55:23.758Z,220.00
2022-10-31T06:56:23.728Z,228.00
2022-10-31T06:57:23.752Z,232.00
2022-10-31T06:58:23.718Z,236.00
2022-10-31T06:59:23.729Z,228.00
2022-10-31T07:00:24.691Z,228.00
2022-10-31T07:01:23.813Z,236.00
2022-10-31T07:02:23.734Z,236.00
2022-10-31T07:03:23.656Z,236.00
2022-10-31T07:04:23.697Z,236.00
2022-10-31T07:05:23.630Z,240.00
2022-10-31T07:06:23.630Z,248.00
2022-10-31T07:07:23.623Z,260.00
2022-10-31T07:08:23.600Z,268.00
2022-10-31T07:09:23.602Z,280.00
2022-10-31T07:10:23.639Z,292.00
2022-10-31T07:11:23.583Z,296.00
2022-10-31T07:12:23.557Z,300.00
2022-10-31T07:13:23.559Z,296.00
2022-10-31T07:14:23.540Z,296.00
2022-10-31T07:15:23.529Z,304.00
2022-10-31T07:16:24.459Z,312.00
2022-10-31T07:17:28.744Z,316.00
2022-10-31T07:18:24.519Z,320.00
2022-10-31T07:19:23.478Z,328.00
2022-10-31T07:20:23.479Z,336.00
2022-10-31T07:21:23.437Z,332.00
2022-10-31T07:22:23.446Z,356.00
2022-10-31T07:23:24.386Z,360.00
2022-10-31T07:24:23.481Z,368.00
2022-10-31T07:25:23.405Z,376.00
2022-10-31T07:26:23.420Z,388.00
2022-10-31T07:27:23.369Z,400.00
2022-10-31T07:28:23.381Z,408.00
2022-10-31T07:29:23.363Z,420.00
2022-10-31T07:30:23.503Z,436.00
2022-10-31T07:31:23.561Z,448.00
2022-10-31T07:32:23.357Z,468.00
2022-10-31T07:33:23.314Z,480.00
2022-10-31T07:34:23.302Z,492.00
2022-10-31T07:35:23.364Z,500.00
2022-10-31T07:36:23.281Z,516.00
2022-10-31T07:37:23.293Z,524.00
2022-10-31T07:38:23.274Z,532.00
2022-10-31T07:39:23.233Z,540.00
2022-10-31T07:40:23.226Z,544.00
2022-10-31T07:41:23.216Z,552.00
2022-10-31T07:42:23.224Z,568.00
2022-10-31T07:43:23.491Z,584.00
2022-10-31T07:44:23.226Z,604.00
2022-10-31T07:45:23.173Z,616.00
2022-10-31T07:46:23.169Z,628.00
2022-10-31T07:47:23.163Z,644.00
2022-10-31T07:48:23.147Z,648.00
2022-10-31T07:49:23.138Z,648.00
2022-10-31T07:50:23.611Z,660.00
2022-10-31T07:51:23.149Z,664.00
2022-10-31T07:52:23.105Z,676.00
2022-10-31T07:53:23.099Z,696.00
2022-10-31T07:54:23.082Z,700.00
2022-10-31T07:55:23.094Z,712.00
2022-10-31T07:56:23.065Z,728.00
2022-10-31T07:57:25.170Z,748.00
2022-10-31T07:58:23.055Z,732.00
2022-10-31T07:59:23.988Z,732.00
2022-10-31T08:00:23.003Z,744.00
2022-10-31T08:01:23.017Z,760.00
2022-10-31T08:02:23.036Z,772.00
2022-10-31T08:03:22.972Z,780.00
2022-10-31T08:04:22.974Z,784.00
2022-10-31T08:05:22.972Z,792.00
2022-10-31T08:06:22.951Z,804.00
2022-10-31T08:07:22.999Z,812.00
2022-10-31T08:08:22.936Z,832.00
2022-10-31T08:09:22.905Z,852.00
2022-10-31T08:10:22.893Z,864.00
2022-10-31T08:11:22.883Z,872.00
2022-10-31T08:12:22.895Z,872.00
2022-10-31T08:13:22.891Z,884.00
2022-10-31T08:14:22.897Z,908.00
2022-10-31T08:15:22.845Z,916.00
2022-10-31T08:16:22.829Z,936.00
2022-10-31T08:17:24.280Z,976.00
2022-10-31T08:18:22.829Z,1000.00
2022-10-31T08:19:22.815Z,1012.00
2022-10-31T08:20:22.828Z,1000.00
2022-10-31T08:21:22.776Z,1004.00
2022-10-31T08:22:22.782Z,1024.00
2022-10-31T08:23:22.748Z,1004.00
2022-10-31T08:24:22.748Z,1040.00
2022-10-31T08:25:22.724Z,1060.00
2022-10-31T08:26:22.742Z,1068.00
2022-10-31T08:27:22.722Z,1076.00
2022-10-31T08:28:22.751Z,1072.00
2022-10-31T08:29:22.747Z,1052.00
2022-10-31T08:30:22.679Z,1084.00
2022-10-31T08:31:22.697Z,1092.00
2022-10-31T08:32:22.750Z,1092.00
2022-10-31T08:33:23.601Z,1112.00
2022-10-31T08:34:22.673Z,1124.00
2022-10-31T08:35:22.620Z,1108.00
2022-10-31T08:36:23.589Z,1100.00
2022-10-31T08:37:22.601Z,1116.00
2022-10-31T08:38:22.714Z,1112.00
2022-10-31T08:39:22.614Z,1080.00
2022-10-31T08:40:22.608Z,1064.00
2022-10-31T08:41:22.563Z,1044.00
2022-10-31T08:42:22.553Z,1020.00
2022-10-31T08:43:23.487Z,1004.00
2022-10-31T08:44:22.552Z,996.00
2022-10-31T08:45:22.504Z,968.00
2022-10-31T08:46:22.511Z,976.00
2022-10-31T08:47:22.491Z,968.00
2022-10-31T08:48:22.482Z,952.00
2022-10-31T08:49:22.473Z,932.00
2022-10-31T08:50:22.486Z,924.00
2022-10-31T08:51:22.433Z,908.00
2022-10-31T08:52:29.381Z,876.00
2022-10-31T08:53:23.417Z,900.00
2022-10-31T08:54:22.405Z,912.00
2022-10-31T08:55:22.397Z,924.00
2022-10-31T08:56:22.409Z,920.00
2022-10-31T08:57:22.379Z,928.00
2022-10-31T08:58:22.353Z,932.00
2022-10-31T08:59:22.349Z,936.00
2022-10-31T09:00:22.338Z,936.00
2022-10-31T09:01:22.498Z,940.00
2022-10-31T09:02:22.433Z,948.00
2022-10-31T09:03:22.301Z,948.00
2022-10-31T09:04:22.284Z,932.00
2022-10-31T09:05:22.288Z,920.00
2022-10-31T09:06:22.339Z,912.00
2022-10-31T09:07:22.280Z,920.00
2022-10-31T09:08:22.236Z,936.00
2022-10-31T09:09:22.222Z,952.00
2022-10-31T09:10:22.269Z,968.00
2022-10-31T09:11:22.248Z,988.00
2022-10-31T09:12:22.224Z,1008.00
2022-10-31T09:13:24.180Z,1032.00
2022-10-31T09:14:22.181Z,1048.00
2022-10-31T09:15:22.162Z,1088.00
2022-10-31T09:16:22.196Z,1124.00
2022-10-31T09:17:22.154Z,1152.00
2022-10-31T09:18:22.158Z,1180.00
2022-10-31T09:19:22.126Z,1212.00
2022-10-31T09:20:22.171Z,1252.00
2022-10-31T09:21:22.123Z,1296.00
2022-10-31T09:22:22.085Z,1348.00
2022-10-31T09:23:22.085Z,1408.00
2022-10-31T09:24:22.123Z,1480.00
2022-10-31T09:25:22.058Z,1564.00
2022-10-31T09:26:22.026Z,1648.00
2022-10-31T09:27:22.080Z,1736.00
2022-10-31T09:28:22.112Z,1800.00
2022-10-31T09:29:22.193Z,1852.00
2022-10-31T09:30:22.084Z,1888.00
2022-10-31T09:31:21.976Z,1920.00
2022-10-31T09:32:21.966Z,1944.00
2022-10-31T09:33:21.988Z,1964.00
2022-10-31T09:34:21.938Z,1976.00
2022-10-31T09:35:24.840Z,2008.00
2022-10-31T09:36:21.940Z,2044.00
2022-10-31T09:37:21.909Z,2068.00
2022-10-31T09:38:21.932Z,2096.00
2022-10-31T09:39:21.890Z,2116.00
2022-10-31T09:40:21.982Z,2128.00
2022-10-31T09:41:21.947Z,2140.00
2022-10-31T09:42:21.850Z,2144.00
2022-10-31T09:43:21.869Z,2144.00
2022-10-31T09:44:21.840Z,2136.00
2022-10-31T09:45:21.842Z,2120.00
2022-10-31T09:46:21.844Z,2096.00
2022-10-31T09:47:21.801Z,2088.00
2022-10-31T09:48:21.797Z,2096.00
2022-10-31T09:49:21.814Z,2120.00
2022-10-31T09:50:21.944Z,2164.00
2022-10-31T09:51:21.764Z,2252.00
2022-10-31T09:52:21.770Z,2388.00
2022-10-31T09:53:21.737Z,2544.00
2022-10-31T09:54:21.715Z,2708.00
2022-10-31T09:55:21.730Z,2888.00
2022-10-31T09:56:21.793Z,3064.00
2022-10-31T09:57:21.708Z,3192.00
2022-10-31T09:58:21.678Z,3272.00
2022-10-31T09:59:21.685Z,3296.00
2022-10-31T10:00:22.610Z,3260.00
2022-10-31T10:01:21.800Z,3180.00
2022-10-31T10:02:21.744Z,3084.00
2022-10-31T10:03:21.624Z,2924.00
2022-10-31T10:04:21.619Z,2708.00
2022-10-31T10:05:21.607Z,2480.00
2022-10-31T10:06:21.577Z,2240.00
2022-10-31T10:07:21.621Z,2056.00
2022-10-31T10:08:21.568Z,1920.00
2022-10-31T10:10:21.592Z,1788.00
2022-10-31T10:11:21.539Z,1776.00
2022-10-31T10:12:21.521Z,1784.00
2022-10-31T10:13:21.527Z,1788.00
2022-10-31T10:14:21.496Z,1756.00
2022-10-31T10:15:21.485Z,1764.00
2022-10-31T10:16:21.489Z,1720.00
2022-10-31T10:17:21.475Z,1628.00
2022-10-31T10:18:21.489Z,1568.00
2022-10-31T10:19:21.466Z,1492.00
2022-10-31T10:20:21.526Z,1496.00
2022-10-31T10:21:21.425Z,1568.00
2022-10-31T10:22:21.410Z,1696.00
2022-10-31T10:23:21.418Z,1868.00
2022-10-31T10:24:21.418Z,2040.00
2022-10-31T10:25:21.374Z,2256.00
2022-10-31T10:26:21.436Z,2532.00
2022-10-31T10:27:23.365Z,2800.00
2022-10-31T10:28:22.296Z,2968.00
2022-10-31T10:29:21.367Z,3056.00
2022-10-31T10:30:21.311Z,3084.00
2022-10-31T10:31:21.317Z,3088.00
2022-10-31T10:32:21.294Z,3028.00
2022-10-31T10:33:21.285Z,2888.00
2022-10-31T10:34:21.278Z,2684.00
2022-10-31T10:35:21.296Z,2420.00
2022-10-31T10:36:21.244Z,2184.00
2022-10-31T10:37:21.235Z,2012.00
2022-10-31T10:38:21.220Z,1892.00
2022-10-31T10:39:21.215Z,1836.00
2022-10-31T10:40:21.219Z,1824.00
2022-10-31T10:41:21.233Z,1860.00
2022-10-31T10:42:21.349Z,1920.00
2022-10-31T10:43:21.175Z,1980.00
2022-10-31T10:44:21.160Z,2060.00
2022-10-31T10:45:21.152Z,2172.00
2022-10-31T10:46:21.140Z,2332.00
2022-10-31T10:47:21.151Z,2512.00
2022-10-31T10:48:21.109Z,2700.00
2022-10-31T10:49:21.148Z,2860.00
2022-10-31T10:50:21.090Z,2964.00
2022-10-31T10:51:31.854Z,2980.00
2022-10-31T10:53:22.053Z,2948.00
2022-10-31T10:54:21.043Z,2856.00
2022-10-31T10:55:21.079Z,2768.00
2022-10-31T10:56:21.019Z,2736.00
2022-10-31T10:57:21.019Z,2664.00
2022-10-31T10:58:21.005Z,2604.00
2022-10-31T10:59:21.002Z,2588.00
2022-10-31T11:00:21.023Z,2596.00
2022-10-31T11:01:20.968Z,2564.00
2022-10-31T11:02:21.005Z,2532.00
2022-10-31T11:03:20.952Z,2508.00
2022-10-31T11:04:21.055Z,2516.00
2022-10-31T11:05:20.923Z,2532.00
2022-10-31T11:06:20.933Z,2516.00
2022-10-31T11:07:20.894Z,2528.00
2022-10-31T11:08:24.811Z,2564.00
2022-10-31T11:09:21.885Z,2576.00
2022-10-31T11:10:20.888Z,2572.00
2022-10-31T11:11:20.866Z,2580.00
2022-10-31T11:12:21.195Z,2648.00
2022-10-31T11:13:20.838Z,2752.00
2022-10-31T11:14:20.820Z,2852.00
2022-10-31T11:15:20.857Z,2928.00
2022-10-31T11:16:20.827Z,3008.00
2022-10-31T11:17:20.880Z,3088.00
2022-10-31T11:18:20.845Z,3196.00
2022-10-31T11:19:20.795Z,3324.00
2022-10-31T11:20:22.711Z,3420.00
2022-10-31T11:21:20.784Z,3460.00
2022-10-31T11:22:20.741Z,3420.00
2022-10-31T11:23:20.736Z,3332.00
2022-10-31T11:24:20.703Z,3276.00
2022-10-31T11:25:20.705Z,3240.00
2022-10-31T11:26:20.686Z,3208.00
2022-10-31T11:27:20.742Z,3176.00
2022-10-31T11:28:20.702Z,3152.00
2022-10-31T11:29:20.655Z,3132.00
2022-10-31T11:30:20.656Z,3112.00
2022-10-31T11:31:20.662Z,3112.00
2022-10-31T11:32:20.643Z,3128.00
2022-10-31T11:33:20.606Z,3140.00
2022-10-31T11:34:20.617Z,3160.00
2022-10-31T11:35:20.605Z,3172.00
2022-10-31T11:36:20.671Z,3172.00
2022-10-31T11:37:20.592Z,3152.00
2022-10-31T11:38:20.555Z,3116.00
2022-10-31T11:39:20.546Z,3072.00
2022-10-31T11:40:20.591Z,3044.00
2022-10-31T11:41:20.524Z,3032.00
2022-10-31T11:42:20.525Z,3020.00
2022-10-31T11:43:20.504Z,2992.00
2022-10-31T11:44:20.508Z,2968.00
2022-10-31T11:45:20.512Z,2932.00
2022-10-31T11:46:20.471Z,2884.00
2022-10-31T11:47:20.474Z,2832.00
2022-10-31T11:48:20.436Z,2784.00
2022-10-31T11:49:20.429Z,2744.00
2022-10-31T11:50:20.423Z,2732.00
2022-10-31T11:51:20.441Z,2748.00
2022-10-31T11:52:20.440Z,2776.00
2022-10-31T11:53:20.375Z,2816.00
2022-10-31T11:54:20.368Z,2848.00
2022-10-31T11:55:20.376Z,2868.00
2022-10-31T11:56:20.341Z,2872.00
2022-10-31T11:57:20.342Z,2864.00
2022-10-31T11:58:21.271Z,2840.00
2022-10-31T11:59:20.333Z,2804.00
2022-10-31T12:00:20.459Z,2796.00
2022-10-31T12:01:20.324Z,2852.00
2022-10-31T12:02:20.347Z,2928.00
2022-10-31T12:03:20.272Z,3000.00
2022-10-31T12:04:20.884Z,3084.00
2022-10-31T12:05:20.246Z,3140.00
2022-10-31T12:06:20.249Z,3108.00
2022-10-31T12:07:20.224Z,3068.00
2022-10-31T12:08:20.274Z,3104.00
2022-10-31T12:09:20.209Z,3184.00
2022-10-31T12:10:21.358Z,3340.00
2022-10-31T12:11:21.637Z,3540.00
2022-10-31T12:12:20.189Z,3732.00
2022-10-31T12:13:20.186Z,3872.00
2022-10-31T12:14:20.182Z,3908.00
2022-10-31T12:15:20.172Z,3876.00
2022-10-31T12:16:20.162Z,3824.00
2022-10-31T12:17:20.208Z,3776.00
2022-10-31T12:18:20.146Z,3764.00
2022-10-31T12:19:20.132Z,3740.00
2022-10-31T12:20:20.098Z,3776.00
2022-10-31T12:21:20.084Z,3852.00
2022-10-31T12:22:20.049Z,3844.00
2022-10-31T12:23:20.090Z,3852.00
2022-10-31T12:24:20.064Z,3832.00
2022-10-31T12:25:20.068Z,3976.00
2022-10-31T12:26:20.021Z,3952.00
2022-10-31T12:27:20.035Z,4000.00
2022-10-31T12:28:20.045Z,3932.00
2022-10-31T12:29:20.016Z,3864.00
2022-10-31T12:30:20.923Z,3780.00
2022-10-31T12:31:19.958Z,3796.00
2022-10-31T12:32:19.933Z,3972.00
2022-10-31T12:33:19.966Z,4288.00
2022-10-31T12:34:19.945Z,4488.00
2022-10-31T12:35:19.926Z,4552.00
2022-10-31T12:36:19.894Z,4508.00
2022-10-31T12:37:19.913Z,4432.00
2022-10-31T12:38:19.881Z,4080.00
2022-10-31T12:39:19.898Z,4236.00
2022-10-31T12:40:19.849Z,4704.00
2022-10-31T12:41:19.939Z,4864.00
2022-10-31T12:42:19.887Z,4796.00
2022-10-31T12:43:19.846Z,4900.00
2022-10-31T12:44:20.778Z,4716.00
2022-10-31T12:45:19.906Z,4172.00
2022-10-31T12:46:19.777Z,3872.00